sensor_id;sensor_type;location;lat;lon;timestamp;P1;durP1;ratioP1;P2;durP2;ratioP2
32946;SDS011;54465;51.230;22.504;2022-10-31T00:00:39;27.00;;;16.73;;
32946;SDS011;54465;51.230;22.504;2022-10-31T00:03:42;22.30;;;16.55;;
32946;SDS011;54465;51.230;22.504;2022-10-31T00:06:44;28.48;;;21.85;;
32946;SDS011;54465;51.230;22.504;2022-10-31T00:09:46;35.70;;;27.15;;
32946;SDS011;54465;51.230;22.504;2022-10-31T00:12:49;23.98;;;18.58;;
32946;SDS011;54465;51.230;22.504;2022-10-31T00:15:53;24.70;;;17.98;;
32946;SDS011;54465;51.230;22.504;2022-10-31T00:18:57;20.80;;;15.25;;
32946;SDS011;54465;51.230;22.504;2022-10-31T00:22:00;23.20;;;16.27;;
32946;SDS011;54465;51.230;22.504;2022-10-31T00:25:02;25.98;;;17.13;;
32946;SDS011;54465;51.230;22.504;2022-10-31T00:28:05;19.65;;;14.98;;
32946;SDS011;54465;51.230;22.504;2022-10-31T00:31:12;22.02;;;15.35;;
32946;SDS011;54465;51.230;22.504;2022-10-31T00:34:14;23.83;;;15.43;;
32946;SDS011;54465;51.230;22.504;2022-10-31T00:37:17;18.88;;;14.10;;
32946;SDS011;54465;51.230;22.504;2022-10-31T00:40:19;18.75;;;13.65;;
32946;SDS011;54465;51.230;22.504;2022-10-31T00:43:21;19.80;;;12.88;;
32946;SDS011;54465;51.230;22.504;2022-10-31T00:46:26;18.58;;;13.18;;
32946;SDS011;54465;51.230;22.504;2022-10-31T00:49:29;20.85;;;13.10;;
32946;SDS011;54465;51.230;22.504;2022-10-31T00:52:31;18.42;;;13.88;;
32946;SDS011;54465;51.230;22.504;2022-10-31T00:55:34;20.67;;;13.07;;
32946;SDS011;54465;51.230;22.504;2022-10-31T00:58:36;18.67;;;13.23;;
32946;SDS011;54465;51.230;22.504;2022-10-31T01:01:42;17.42;;;13.35;;
32946;SDS011;54465;51.230;22.504;2022-10-31T01:04:44;19.40;;;14.05;;
32946;SDS011;54465;51.230;22.504;2022-10-31T01:07:47;19.30;;;13.70;;
32946;SDS011;54465;51.230;22.504;2022-10-31T01:11:00;17.55;;;13.30;;
32946;SDS011;54465;51.230;22.504;2022-10-31T01:14:08;19.85;;;13.77;;
32946;SDS011;54465;51.230;22.504;2022-10-31T01:17:12;17.45;;;13.15;;
32946;SDS011;54465;51.230;22.504;2022-10-31T01:20:15;19.90;;;13.27;;
32946;SDS011;54465;51.230;22.504;2022-10-31T01:23:19;17.42;;;12.85;;
32946;SDS011;54465;51.230;22.504;2022-10-31T01:26:22;20.67;;;13.23;;
32946;SDS011;54465;51.230;22.504;2022-10-31T01:29:27;16.20;;;12.52;;
32946;SDS011;54465;51.230;22.504;2022-10-31T01:32:35;19.90;;;13.23;;
32946;SDS011;54465;51.230;22.504;2022-10-31T01:35:38;17.33;;;12.73;;
32946;SDS011;54465;51.230;22.504;2022-10-31T01:38:40;28.15;;;16.85;;
32946;SDS011;54465;51.230;22.504;2022-10-31T01:41:43;22.35;;;15.50;;
32946;SDS011;54465;51.230;22.504;2022-10-31T01:44:52;21.75;;;14.80;;
32946;SDS011;54465;51.230;22.504;2022-10-31T01:47:58;20.42;;;13.98;;
32946;SDS011;54465;51.230;22.504;2022-10-31T01:51:00;21.70;;;15.27;;
32946;SDS011;54465;51.230;22.504;2022-10-31T01:54:06;20.10;;;15.32;;
32946;SDS011;54465;51.230;22.504;2022-10-31T01:57:14;22.15;;;14.98;;
32946;SDS011;54465;51.230;22.504;2022-10-31T02:00:17;19.60;;;14.60;;
32946;SDS011;54465;51.230;22.504;2022-10-31T02:03:23;21.23;;;14.18;;
32946;SDS011;54465;51.230;22.504;2022-10-31T02:06:27;19.80;;;14.57;;
32946;SDS011;54465;51.230;22.504;2022-10-31T02:09:35;20.00;;;12.80;;
32946;SDS011;54465;51.230;22.504;2022-10-31T02:12:38;14.55;;;12.15;;
32946;SDS011;54465;51.230;22.504;2022-10-31T02:15:42;15.18;;;11.98;;
32946;SDS011;54465;51.230;22.504;2022-10-31T02:18:48;18.48;;;13.43;;
32946;SDS011;54465;51.230;22.504;2022-10-31T02:21:52;18.70;;;13.02;;
32946;SDS011;54465;51.230;22.504;2022-10-31T02:25:09;17.40;;;12.25;;
32946;SDS011;54465;51.230;22.504;2022-10-31T02:28:25;20.40;;;13.75;;
32946;SDS011;54465;51.230;22.504;2022-10-31T02:31:49;17.38;;;12.60;;
32946;SDS011;54465;51.230;22.504;2022-10-31T02:35:02;19.38;;;12.77;;
32946;SDS011;54465;51.230;22.504;2022-10-31T02:38:24;17.83;;;12.75;;
32946;SDS011;54465;51.230;22.504;2022-10-31T02:42:04;14.70;;;11.48;;
32946;SDS011;54465;51.230;22.504;2022-10-31T02:45:12;17.60;;;12.07;;
32946;SDS011;54465;51.230;22.504;2022-10-31T02:48:23;16.58;;;12.15;;
32946;SDS011;54465;51.230;22.504;2022-10-31T02:51:28;15.17;;;12.43;;
32946;SDS011;54465;51.230;22.504;2022-10-31T02:54:31;15.73;;;11.50;;
32946;SDS011;54465;51.230;22.504;2022-10-31T02:57:33;15.60;;;11.30;;
32946;SDS011;54465;51.230;22.504;2022-10-31T03:00:41;15.95;;;11.95;;
32946;SDS011;54465;51.230;22.504;2022-10-31T03:03:53;16.48;;;11.60;;
32946;SDS011;54465;51.230;22.504;2022-10-31T03:07:16;13.82;;;9.88;;
32946;SDS011;54465;51.230;22.504;2022-10-31T03:10:29;13.02;;;9.73;;
32946;SDS011;54465;51.230;22.504;2022-10-31T03:13:39;12.07;;;10.20;;
32946;SDS011;54465;51.230;22.504;2022-10-31T03:16:48;13.65;;;11.13;;
32946;SDS011;54465;51.230;22.504;2022-10-31T03:19:54;12.60;;;10.38;;
32946;SDS011;54465;51.230;22.504;2022-10-31T03:23:00;13.20;;;10.82;;
32946;SDS011;54465;51.230;22.504;2022-10-31T03:26:04;12.40;;;9.15;;
32946;SDS011;54465;51.230;22.504;2022-10-31T03:29:09;14.15;;;9.63;;
32946;SDS011;54465;51.230;22.504;2022-10-31T03:32:16;12.45;;;9.88;;
32946;SDS011;54465;51.230;22.504;2022-10-31T03:35:26;14.90;;;11.52;;
32946;SDS011;54465;51.230;22.504;2022-10-31T03:38:29;14.50;;;11.40;;
32946;SDS011;54465;51.230;22.504;2022-10-31T03:41:37;10.75;;;8.77;;
32946;SDS011;54465;51.230;22.504;2022-10-31T03:44:43;12.20;;;9.55;;
32946;SDS011;54465;51.230;22.504;2022-10-31T03:47:53;12.23;;;9.40;;
32946;SDS011;54465;51.230;22.504;2022-10-31T03:50:59;13.00;;;10.05;;
32946;SDS011;54465;51.230;22.504;2022-10-31T03:54:08;13.63;;;9.95;;
32946;SDS011;54465;51.230;22.504;2022-10-31T03:57:16;13.33;;;9.37;;
32946;SDS011;54465;51.230;22.504;2022-10-31T04:03:28;11.13;;;9.05;;
32946;SDS011;54465;51.230;22.504;2022-10-31T04:06:36;12.50;;;9.48;;
32946;SDS011;54465;51.230;22.504;2022-10-31T04:09:41;12.50;;;8.98;;
32946;SDS011;54465;51.230;22.504;2022-10-31T04:12:48;11.30;;;8.75;;
32946;SDS011;54465;51.230;22.504;2022-10-31T04:15:56;13.02;;;8.80;;
32946;SDS011;54465;51.230;22.504;2022-10-31T04:18:59;14.07;;;10.50;;
32946;SDS011;54465;51.230;22.504;2022-10-31T04:22:03;13.10;;;10.50;;
32946;SDS011;54465;51.230;22.504;2022-10-31T04:25:06;19.25;;;13.55;;
32946;SDS011;54465;51.230;22.504;2022-10-31T04:28:09;14.93;;;12.10;;
32946;SDS011;54465;51.230;22.504;2022-10-31T04:31:11;14.18;;;11.25;;
32946;SDS011;54465;51.230;22.504;2022-10-31T04:34:18;13.23;;;9.98;;
32946;SDS011;54465;51.230;22.504;2022-10-31T04:37:22;12.15;;;9.75;;
32946;SDS011;54465;51.230;22.504;2022-10-31T04:40:24;11.35;;;9.52;;
32946;SDS011;54465;51.230;22.504;2022-10-31T04:43:55;11.23;;;9.57;;
32946;SDS011;54465;51.230;22.504;2022-10-31T04:47:01;12.77;;;10.20;;
32946;SDS011;54465;51.230;22.504;2022-10-31T04:50:05;10.50;;;9.07;;
32946;SDS011;54465;51.230;22.504;2022-10-31T04:53:12;12.15;;;10.00;;
32946;SDS011;54465;51.230;22.504;2022-10-31T04:56:34;11.95;;;9.65;;
32946;SDS011;54465;51.230;22.504;2022-10-31T04:59:43;11.05;;;8.80;;
32946;SDS011;54465;51.230;22.504;2022-10-31T05:02:46;11.93;;;9.68;;
32946;SDS011;54465;51.230;22.504;2022-10-31T05:05:49;11.55;;;8.98;;
32946;SDS011;54465;51.230;22.504;2022-10-31T05:08:53;11.02;;;9.13;;
32946;SDS011;54465;51.230;22.504;2022-10-31T05:11:55;10.52;;;9.25;;
32946;SDS011;54465;51.230;22.504;2022-10-31T05:15:16;13.38;;;10.18;;
32946;SDS011;54465;51.230;22.504;2022-10-31T05:18:38;10.95;;;9.18;;
32946;SDS011;54465;51.230;22.504;2022-10-31T05:21:59;11.55;;;9.00;;
32946;SDS011;54465;51.230;22.504;2022-10-31T05:25:04;10.90;;;9.48;;
32946;SDS011;54465;51.230;22.504;2022-10-31T05:28:07;10.10;;;8.73;;
32946;SDS011;54465;51.230;22.504;2022-10-31T05:31:10;10.60;;;8.85;;
32946;SDS011;54465;51.230;22.504;2022-10-31T05:34:13;10.02;;;8.35;;
32946;SDS011;54465;51.230;22.504;2022-10-31T05:37:34;10.07;;;8.40;;
32946;SDS011;54465;51.230;22.504;2022-10-31T05:40:41;10.32;;;8.48;;
32946;SDS011;54465;51.230;22.504;2022-10-31T05:43:44;11.27;;;9.68;;
32946;SDS011;54465;51.230;22.504;2022-10-31T05:46:47;11.38;;;9.57;;
32946;SDS011;54465;51.230;22.504;2022-10-31T05:50:25;11.53;;;9.73;;
32946;SDS011;54465;51.230;22.504;2022-10-31T05:53:41;12.73;;;11.00;;
32946;SDS011;54465;51.230;22.504;2022-10-31T05:56:45;11.38;;;10.13;;
32946;SDS011;54465;51.230;22.504;2022-10-31T05:59:47;12.35;;;10.43;;
32946;SDS011;54465;51.230;22.504;2022-10-31T06:02:57;16.63;;;9.32;;
32946;SDS011;54465;51.230;22.504;2022-10-31T06:06:12;16.50;;;11.00;;
32946;SDS011;54465;51.230;22.504;2022-10-31T06:09:15;11.48;;;9.32;;
32946;SDS011;54465;51.230;22.504;2022-10-31T06:12:20;9.63;;;7.80;;
32946;SDS011;54465;51.230;22.504;2022-10-31T06:16:01;9.70;;;7.93;;
32946;SDS011;54465;51.230;22.504;2022-10-31T06:19:09;9.00;;;7.30;;
32946;SDS011;54465;51.230;22.504;2022-10-31T06:22:12;9.27;;;7.68;;
32946;SDS011;54465;51.230;22.504;2022-10-31T06:25:14;8.93;;;7.78;;
32946;SDS011;54465;51.230;22.504;2022-10-31T06:28:24;10.30;;;8.60;;
32946;SDS011;54465;51.230;22.504;2022-10-31T06:31:44;10.05;;;7.78;;
32946;SDS011;54465;51.230;22.504;2022-10-31T06:34:47;8.35;;;7.13;;
32946;SDS011;54465;51.230;22.504;2022-10-31T06:37:53;11.50;;;6.78;;
32946;SDS011;54465;51.230;22.504;2022-10-31T06:41:15;13.57;;;6.85;;
32946;SDS011;54465;51.230;22.504;2022-10-31T06:44:24;11.95;;;7.88;;
32946;SDS011;54465;51.230;22.504;2022-10-31T06:47:50;12.57;;;8.90;;
32946;SDS011;54465;51.230;22.504;2022-10-31T06:50:59;18.02;;;14.30;;
32946;SDS011;54465;51.230;22.504;2022-10-31T06:54:02;12.07;;;9.52;;
32946;SDS011;54465;51.230;22.504;2022-10-31T06:57:05;8.10;;;7.25;;
32946;SDS011;54465;51.230;22.504;2022-10-31T07:00:10;7.70;;;6.18;;
32946;SDS011;54465;51.230;22.504;2022-10-31T07:03:28;15.48;;;5.88;;
32946;SDS011;54465;51.230;22.504;2022-10-31T07:06:30;13.48;;;5.68;;
32946;SDS011;54465;51.230;22.504;2022-10-31T07:09:33;9.95;;;6.45;;
32946;SDS011;54465;51.230;22.504;2022-10-31T07:12:37;9.05;;;6.70;;
32946;SDS011;54465;51.230;22.504;2022-10-31T07:15:44;8.90;;;6.50;;
32946;SDS011;54465;51.230;22.504;2022-10-31T07:18:47;8.80;;;5.72;;
32946;SDS011;54465;51.230;22.504;2022-10-31T07:21:51;9.23;;;6.93;;
32946;SDS011;54465;51.230;22.504;2022-10-31T07:24:53;9.77;;;6.60;;
32946;SDS011;54465;51.230;22.504;2022-10-31T07:28:10;6.25;;;5.45;;
32946;SDS011;54465;51.230;22.504;2022-10-31T07:31:14;11.77;;;6.50;;
32946;SDS011;54465;51.230;22.504;2022-10-31T07:34:16;8.05;;;6.35;;
32946;SDS011;54465;51.230;22.504;2022-10-31T07:37:37;6.68;;;5.50;;
32946;SDS011;54465;51.230;22.504;2022-10-31T07:40:40;6.97;;;5.05;;
32946;SDS011;54465;51.230;22.504;2022-10-31T07:43:43;5.10;;;4.60;;
32946;SDS011;54465;51.230;22.504;2022-10-31T07:46:54;4.90;;;4.40;;
32946;SDS011;54465;51.230;22.504;2022-10-31T07:50:16;5.88;;;4.40;;
32946;SDS011;54465;51.230;22.504;2022-10-31T07:53:43;6.05;;;5.10;;
32946;SDS011;54465;51.230;22.504;2022-10-31T07:56:56;7.70;;;4.85;;
32946;SDS011;54465;51.230;22.504;2022-10-31T07:59:59;6.38;;;5.65;;
32946;SDS011;54465;51.230;22.504;2022-10-31T08:03:05;8.27;;;6.10;;
32946;SDS011;54465;51.230;22.504;2022-10-31T08:06:27;6.20;;;5.45;;
32946;SDS011;54465;51.230;22.504;2022-10-31T08:09:45;7.40;;;5.60;;
32946;SDS011;54465;51.230;22.504;2022-10-31T08:13:02;5.97;;;4.72;;
32946;SDS011;54465;51.230;22.504;2022-10-31T08:16:08;7.38;;;5.53;;
32946;SDS011;54465;51.230;22.504;2022-10-31T08:19:20;9.57;;;5.80;;
32946;SDS011;54465;51.230;22.504;2022-10-31T08:22:24;8.27;;;5.95;;
32946;SDS011;54465;51.230;22.504;2022-10-31T08:25:28;6.80;;;5.78;;
32946;SDS011;54465;51.230;22.504;2022-10-31T08:28:33;7.63;;;5.63;;
32946;SDS011;54465;51.230;22.504;2022-10-31T08:31:42;10.38;;;5.80;;
32946;SDS011;54465;51.230;22.504;2022-10-31T08:35:05;7.95;;;6.35;;
32946;SDS011;54465;51.230;22.504;2022-10-31T08:38:31;8.35;;;6.38;;
32946;SDS011;54465;51.230;22.504;2022-10-31T08:44:37;9.55;;;6.80;;
32946;SDS011;54465;51.230;22.504;2022-10-31T08:47:41;8.15;;;6.18;;
32946;SDS011;54465;51.230;22.504;2022-10-31T08:50:46;7.07;;;6.38;;
32946;SDS011;54465;51.230;22.504;2022-10-31T08:53:49;7.50;;;6.72;;
32946;SDS011;54465;51.230;22.504;2022-10-31T08:56:57;10.45;;;7.45;;
32946;SDS011;54465;51.230;22.504;2022-10-31T09:00:29;8.90;;;7.47;;
32946;SDS011;54465;51.230;22.504;2022-10-31T09:03:40;9.38;;;7.68;;
32946;SDS011;54465;51.230;22.504;2022-10-31T09:06:46;9.30;;;7.57;;
32946;SDS011;54465;51.230;22.504;2022-10-31T09:09:49;9.43;;;7.55;;
32946;SDS011;54465;51.230;22.504;2022-10-31T09:12:56;9.10;;;7.50;;
32946;SDS011;54465;51.230;22.504;2022-10-31T09:16:23;9.25;;;8.07;;
32946;SDS011;54465;51.230;22.504;2022-10-31T09:19:26;8.90;;;7.82;;
32946;SDS011;54465;51.230;22.504;2022-10-31T09:22:33;9.75;;;8.32;;
32946;SDS011;54465;51.230;22.504;2022-10-31T09:25:36;9.55;;;7.25;;
32946;SDS011;54465;51.230;22.504;2022-10-31T09:29:02;8.73;;;7.38;;
32946;SDS011;54465;51.230;22.504;2022-10-31T09:32:06;9.57;;;7.30;;
32946;SDS011;54465;51.230;22.504;2022-10-31T09:35:14;8.70;;;7.80;;
32946;SDS011;54465;51.230;22.504;2022-10-31T09:38:20;9.70;;;7.65;;
32946;SDS011;54465;51.230;22.504;2022-10-31T09:41:26;9.35;;;8.18;;
32946;SDS011;54465;51.230;22.504;2022-10-31T09:44:41;8.98;;;7.55;;
32946;SDS011;54465;51.230;22.504;2022-10-31T09:48:02;9.18;;;8.10;;
32946;SDS011;54465;51.230;22.504;2022-10-31T09:51:43;9.20;;;8.25;;
32946;SDS011;54465;51.230;22.504;2022-10-31T09:54:57;10.82;;;8.77;;
32946;SDS011;54465;51.230;22.504;2022-10-31T09:58:04;11.07;;;8.82;;
32946;SDS011;54465;51.230;22.504;2022-10-31T10:01:11;11.27;;;8.82;;
32946;SDS011;54465;51.230;22.504;2022-10-31T10:04:32;12.00;;;8.77;;
32946;SDS011;54465;51.230;22.504;2022-10-31T10:07:55;10.63;;;9.35;;
32946;SDS011;54465;51.230;22.504;2022-10-31T10:11:36;13.07;;;9.57;;
32946;SDS011;54465;51.230;22.504;2022-10-31T10:14:53;13.32;;;9.82;;
32946;SDS011;54465;51.230;22.504;2022-10-31T10:18:10;11.03;;;9.00;;
32946;SDS011;54465;51.230;22.504;2022-10-31T10:21:27;12.18;;;9.20;;
32946;SDS011;54465;51.230;22.504;2022-10-31T10:24:42;13.32;;;9.73;;
32946;SDS011;54465;51.230;22.504;2022-10-31T10:28:03;11.32;;;9.40;;
32946;SDS011;54465;51.230;22.504;2022-10-31T10:31:14;11.00;;;9.48;;
32946;SDS011;54465;51.230;22.504;2022-10-31T10:34:19;10.57;;;9.27;;
32946;SDS011;54465;51.230;22.504;2022-10-31T10:37:27;10.15;;;8.93;;
32946;SDS011;54465;51.230;22.504;2022-10-31T10:40:33;10.15;;;9.05;;
32946;SDS011;54465;51.230;22.504;2022-10-31T10:43:37;10.40;;;9.30;;
32946;SDS011;54465;51.230;22.504;2022-10-31T10:46:41;9.57;;;8.57;;
32946;SDS011;54465;51.230;22.504;2022-10-31T10:50:02;10.77;;;8.57;;
32946;SDS011;54465;51.230;22.504;2022-10-31T10:53:11;8.88;;;7.20;;
32946;SDS011;54465;51.230;22.504;2022-10-31T10:56:38;7.82;;;7.03;;
32946;SDS011;54465;51.230;22.504;2022-10-31T10:59:48;10.80;;;7.47;;
32946;SDS011;54465;51.230;22.504;2022-10-31T11:02:52;7.63;;;6.82;;
32946;SDS011;54465;51.230;22.504;2022-10-31T11:05:56;7.35;;;6.40;;
32946;SDS011;54465;51.230;22.504;2022-10-31T11:09:08;9.05;;;7.68;;
32946;SDS011;54465;51.230;22.504;2022-10-31T11:12:17;9.35;;;7.22;;
32946;SDS011;54465;51.230;22.504;2022-10-31T11:15:26;8.52;;;6.53;;
32946;SDS011;54465;51.230;22.504;2022-10-31T11:18:30;7.53;;;6.13;;
32946;SDS011;54465;51.230;22.504;2022-10-31T11:21:41;7.45;;;5.32;;
32946;SDS011;54465;51.230;22.504;2022-10-31T11:24:45;5.68;;;4.55;;
32946;SDS011;54465;51.230;22.504;2022-10-31T11:27:58;4.75;;;3.72;;
32946;SDS011;54465;51.230;22.504;2022-10-31T11:31:05;6.38;;;4.57;;
32946;SDS011;54465;51.230;22.504;2022-10-31T11:34:13;7.35;;;5.63;;
32946;SDS011;54465;51.230;22.504;2022-10-31T11:37:23;10.48;;;6.80;;
32946;SDS011;54465;51.230;22.504;2022-10-31T11:40:27;8.38;;;6.40;;
32946;SDS011;54465;51.230;22.504;2022-10-31T11:43:29;9.73;;;6.13;;
32946;SDS011;54465;51.230;22.504;2022-10-31T11:46:35;8.90;;;7.20;;
32946;SDS011;54465;51.230;22.504;2022-10-31T11:49:40;10.27;;;8.95;;
32946;SDS011;54465;51.230;22.504;2022-10-31T11:52:44;11.40;;;10.02;;
32946;SDS011;54465;51.230;22.504;2022-10-31T11:55:47;16.77;;;12.80;;
32946;SDS011;54465;51.230;22.504;2022-10-31T11:59:03;15.55;;;12.93;;
32946;SDS011;54465;51.230;22.504;2022-10-31T12:02:18;18.38;;;14.88;;
32946;SDS011;54465;51.230;22.504;2022-10-31T12:05:23;16.70;;;14.60;;
32946;SDS011;54465;51.230;22.504;2022-10-31T12:08:32;23.42;;;15.52;;
32946;SDS011;54465;51.230;22.504;2022-10-31T12:11:46;21.23;;;15.10;;
32946;SDS011;54465;51.230;22.504;2022-10-31T12:15:02;21.17;;;15.20;;
32946;SDS011;54465;51.230;22.504;2022-10-31T12:18:27;20.20;;;15.23;;
32946;SDS011;54465;51.230;22.504;2022-10-31T12:22:04;23.55;;;16.98;;
32946;SDS011;54465;51.230;22.504;2022-10-31T12:25:13;22.10;;;15.77;;
32946;SDS011;54465;51.230;22.504;2022-10-31T12:28:29;20.05;;;16.05;;
32946;SDS011;54465;51.230;22.504;2022-10-31T12:31:49;21.85;;;15.55;;
32946;SDS011;54465;51.230;22.504;2022-10-31T12:35:05;22.30;;;16.60;;
32946;SDS011;54465;51.230;22.504;2022-10-31T12:41:38;25.48;;;16.90;;
32946;SDS011;54465;51.230;22.504;2022-10-31T12:44:57;24.52;;;17.77;;
32946;SDS011;54465;51.230;22.504;2022-10-31T12:48:21;21.48;;;16.80;;
32946;SDS011;54465;51.230;22.504;2022-10-31T12:51:38;23.75;;;17.77;;
32946;SDS011;54465;51.230;22.504;2022-10-31T12:54:50;21.63;;;17.27;;
32946;SDS011;54465;51.230;22.504;2022-10-31T12:58:07;22.40;;;17.20;;
32946;SDS011;54465;51.230;22.504;2022-10-31T13:01:16;26.17;;;17.00;;
32946;SDS011;54465;51.230;22.504;2022-10-31T13:07:36;24.40;;;16.42;;
32946;SDS011;54465;51.230;22.504;2022-10-31T13:10:44;21.00;;;15.88;;
32946;SDS011;54465;51.230;22.504;2022-10-31T13:13:52;21.75;;;15.55;;
32946;SDS011;54465;51.230;22.504;2022-10-31T13:17:00;20.83;;;15.13;;
32946;SDS011;54465;51.230;22.504;2022-10-31T13:20:13;20.10;;;14.85;;
32946;SDS011;54465;51.230;22.504;2022-10-31T13:23:24;21.63;;;15.93;;
32946;SDS011;54465;51.230;22.504;2022-10-31T13:26:33;20.02;;;14.15;;
32946;SDS011;54465;51.230;22.504;2022-10-31T13:29:39;20.80;;;14.25;;
32946;SDS011;54465;51.230;22.504;2022-10-31T13:32:50;18.83;;;13.75;;
32946;SDS011;54465;51.230;22.504;2022-10-31T13:35:58;21.15;;;14.25;;
32946;SDS011;54465;51.230;22.504;2022-10-31T13:39:15;19.23;;;14.00;;
32946;SDS011;54465;51.230;22.504;2022-10-31T13:42:25;20.45;;;14.20;;
32946;SDS011;54465;51.230;22.504;2022-10-31T13:45:49;20.25;;;13.95;;
32946;SDS011;54465;51.230;22.504;2022-10-31T13:48:53;16.83;;;13.32;;
32946;SDS011;54465;51.230;22.504;2022-10-31T13:52:04;17.27;;;13.07;;
32946;SDS011;54465;51.230;22.504;2022-10-31T13:58:38;20.15;;;14.30;;
32946;SDS011;54465;51.230;22.504;2022-10-31T14:01:54;20.95;;;15.13;;
32946;SDS011;54465;51.230;22.504;2022-10-31T14:05:00;18.63;;;13.90;;
32946;SDS011;54465;51.230;22.504;2022-10-31T14:08:16;20.98;;;14.32;;
32946;SDS011;54465;51.230;22.504;2022-10-31T14:11:24;21.58;;;14.65;;
32946;SDS011;54465;51.230;22.504;2022-10-31T14:14:30;24.02;;;15.23;;
32946;SDS011;54465;51.230;22.504;2022-10-31T14:17:45;22.05;;;15.85;;
32946;SDS011;54465;51.230;22.504;2022-10-31T14:20:49;18.83;;;14.13;;
32946;SDS011;54465;51.230;22.504;2022-10-31T14:23:51;21.20;;;14.60;;
32946;SDS011;54465;51.230;22.504;2022-10-31T14:26:59;21.13;;;14.63;;
32946;SDS011;54465;51.230;22.504;2022-10-31T14:30:09;20.83;;;14.45;;
32946;SDS011;54465;51.230;22.504;2022-10-31T14:33:20;21.85;;;15.68;;
32946;SDS011;54465;51.230;22.504;2022-10-31T14:36:28;22.33;;;15.27;;
32946;SDS011;54465;51.230;22.504;2022-10-31T14:39:42;22.52;;;14.18;;
32946;SDS011;54465;51.230;22.504;2022-10-31T14:43:02;21.75;;;15.07;;
32946;SDS011;54465;51.230;22.504;2022-10-31T14:46:35;20.30;;;13.88;;
32946;SDS011;54465;51.230;22.504;2022-10-31T14:49:55;20.17;;;14.57;;
32946;SDS011;54465;51.230;22.504;2022-10-31T14:53:20;19.80;;;14.55;;
32946;SDS011;54465;51.230;22.504;2022-10-31T14:56:27;24.38;;;15.60;;
32946;SDS011;54465;51.230;22.504;2022-10-31T14:59:35;19.48;;;14.75;;
32946;SDS011;54465;51.230;22.504;2022-10-31T15:02:42;24.33;;;15.52;;
32946;SDS011;54465;51.230;22.504;2022-10-31T15:05:51;23.88;;;16.33;;
32946;SDS011;54465;51.230;22.504;2022-10-31T15:08:55;22.95;;;16.27;;
32946;SDS011;54465;51.230;22.504;2022-10-31T15:11:58;25.00;;;17.17;;
32946;SDS011;54465;51.230;22.504;2022-10-31T15:15:12;22.10;;;16.80;;
32946;SDS011;54465;51.230;22.504;2022-10-31T15:22:05;24.65;;;17.00;;
32946;SDS011;54465;51.230;22.504;2022-10-31T15:25:18;26.77;;;17.20;;
32946;SDS011;54465;51.230;22.504;2022-10-31T15:28:23;26.92;;;16.80;;
32946;SDS011;54465;51.230;22.504;2022-10-31T15:31:35;26.58;;;17.15;;
32946;SDS011;54465;51.230;22.504;2022-10-31T15:34:39;27.02;;;17.95;;
32946;SDS011;54465;51.230;22.504;2022-10-31T15:37:50;29.20;;;17.13;;
32946;SDS011;54465;51.230;22.504;2022-10-31T15:40:55;28.08;;;19.25;;
32946;SDS011;54465;51.230;22.504;2022-10-31T15:44:11;30.40;;;18.58;;
32946;SDS011;54465;51.230;22.504;2022-10-31T15:47:22;33.92;;;20.30;;
32946;SDS011;54465;51.230;22.504;2022-10-31T15:50:27;30.50;;;19.45;;
32946;SDS011;54465;51.230;22.504;2022-10-31T15:53:41;39.55;;;21.90;;
32946;SDS011;54465;51.230;22.504;2022-10-31T15:57:09;38.65;;;22.55;;
32946;SDS011;54465;51.230;22.504;2022-10-31T16:00:21;40.40;;;23.20;;
32946;SDS011;54465;51.230;22.504;2022-10-31T16:03:40;45.28;;;24.15;;
32946;SDS011;54465;51.230;22.504;2022-10-31T16:06:42;41.72;;;24.10;;
32946;SDS011;54465;51.230;22.504;2022-10-31T16:09:53;73.90;;;24.65;;
32946;SDS011;54465;51.230;22.504;2022-10-31T16:12:57;60.80;;;25.67;;
32946;SDS011;54465;51.230;22.504;2022-10-31T16:16:15;52.08;;;23.77;;
32946;SDS011;54465;51.230;22.504;2022-10-31T16:19:27;48.25;;;24.05;;
32946;SDS011;54465;51.230;22.504;2022-10-31T16:25:37;64.15;;;25.17;;
32946;SDS011;54465;51.230;22.504;2022-10-31T16:32:31;90.45;;;25.00;;
32946;SDS011;54465;51.230;22.504;2022-10-31T16:35:38;52.25;;;25.65;;
32946;SDS011;54465;51.230;22.504;2022-10-31T16:38:59;50.95;;;26.80;;
32946;SDS011;54465;51.230;22.504;2022-10-31T16:42:03;61.03;;;27.85;;
32946;SDS011;54465;51.230;22.504;2022-10-31T16:45:06;48.15;;;26.65;;
32946;SDS011;54465;51.230;22.504;2022-10-31T16:48:20;58.17;;;23.00;;
32946;SDS011;54465;51.230;22.504;2022-10-31T16:51:29;35.33;;;22.10;;
32946;SDS011;54465;51.230;22.504;2022-10-31T16:54:33;48.17;;;22.33;;
32946;SDS011;54465;51.230;22.504;2022-10-31T16:57:36;59.10;;;21.83;;
32946;SDS011;54465;51.230;22.504;2022-10-31T17:00:39;42.83;;;22.23;;
32946;SDS011;54465;51.230;22.504;2022-10-31T17:03:47;49.65;;;20.77;;
32946;SDS011;54465;51.230;22.504;2022-10-31T17:06:51;37.17;;;19.35;;
32946;SDS011;54465;51.230;22.504;2022-10-31T17:09:58;85.88;;;21.27;;
32946;SDS011;54465;51.230;22.504;2022-10-31T17:13:03;55.78;;;19.73;;
32946;SDS011;54465;51.230;22.504;2022-10-31T17:16:13;42.20;;;20.27;;
32946;SDS011;54465;51.230;22.504;2022-10-31T17:19:15;53.45;;;21.20;;
32946;SDS011;54465;51.230;22.504;2022-10-31T17:22:20;44.15;;;21.48;;
32946;SDS011;54465;51.230;22.504;2022-10-31T17:25:24;38.22;;;20.30;;
32946;SDS011;54465;51.230;22.504;2022-10-31T17:28:28;75.03;;;20.35;;
32946;SDS011;54465;51.230;22.504;2022-10-31T17:31:33;62.22;;;20.88;;
32946;SDS011;54465;51.230;22.504;2022-10-31T17:37:58;42.30;;;21.88;;
32946;SDS011;54465;51.230;22.504;2022-10-31T17:41:03;37.55;;;21.75;;
32946;SDS011;54465;51.230;22.504;2022-10-31T17:44:08;42.70;;;22.50;;
32946;SDS011;54465;51.230;22.504;2022-10-31T17:47:13;38.85;;;20.95;;
32946;SDS011;54465;51.230;22.504;2022-10-31T17:50:19;31.70;;;18.75;;
32946;SDS011;54465;51.230;22.504;2022-10-31T17:53:25;34.55;;;19.13;;
32946;SDS011;54465;51.230;22.504;2022-10-31T17:56:29;29.13;;;17.15;;
32946;SDS011;54465;51.230;22.504;2022-10-31T17:59:32;32.25;;;18.42;;
32946;SDS011;54465;51.230;22.504;2022-10-31T18:02:38;43.63;;;17.25;;
32946;SDS011;54465;51.230;22.504;2022-10-31T18:05:51;43.85;;;18.67;;
32946;SDS011;54465;51.230;22.504;2022-10-31T18:09:00;33.92;;;18.40;;
32946;SDS011;54465;51.230;22.504;2022-10-31T18:12:06;39.20;;;18.17;;
32946;SDS011;54465;51.230;22.504;2022-10-31T18:15:09;52.08;;;19.75;;
32946;SDS011;54465;51.230;22.504;2022-10-31T18:18:12;44.25;;;19.17;;
32946;SDS011;54465;51.230;22.504;2022-10-31T18:21:15;31.77;;;19.65;;
32946;SDS011;54465;51.230;22.504;2022-10-31T18:24:18;43.08;;;19.75;;
32946;SDS011;54465;51.230;22.504;2022-10-31T18:27:21;57.15;;;21.17;;
32946;SDS011;54465;51.230;22.504;2022-10-31T18:30:23;47.45;;;20.65;;
32946;SDS011;54465;51.230;22.504;2022-10-31T18:33:27;31.10;;;20.80;;
32946;SDS011;54465;51.230;22.504;2022-10-31T18:36:30;70.00;;;22.00;;
32946;SDS011;54465;51.230;22.504;2022-10-31T18:39:34;54.85;;;22.50;;
32946;SDS011;54465;51.230;22.504;2022-10-31T18:42:37;33.90;;;21.52;;
32946;SDS011;54465;51.230;22.504;2022-10-31T18:45:40;44.45;;;22.40;;
32946;SDS011;54465;51.230;22.504;2022-10-31T18:48:43;42.05;;;22.23;;